createdAt,value
2022-08-26T00:01:46.680Z,17.75
2022-08-26T00:04:13.927Z,16.15
2022-08-26T00:06:42.677Z,22.50
2022-08-26T00:09:16.225Z,21.05
2022-08-26T00:11:45.364Z,20.13
2022-08-26T00:14:13.975Z,25.02
2022-08-26T00:16:48.116Z,24.42
2022-08-26T00:19:16.639Z,15.38
2022-08-26T00:21:43.693Z,21.35
2022-08-26T00:24:10.347Z,19.20
2022-08-26T00:26:37.749Z,22.90
2022-08-26T00:29:04.443Z,15.05
2022-08-26T00:31:31.956Z,22.25
2022-08-26T00:33:59.277Z,21.73
2022-08-26T00:36:29.669Z,18.90
2022-08-26T00:38:57.411Z,22.83
2022-08-26T00:41:24.097Z,19.35
2022-08-26T00:43:51.757Z,30.65
2022-08-26T00:46:26.833Z,18.02
2022-08-26T00:49:12.079Z,22.42
2022-08-26T00:51:45.750Z,17.38
2022-08-26T00:54:14.463Z,20.48
2022-08-26T00:56:43.179Z,25.15
2022-08-26T00:59:13.101Z,18.95
2022-08-26T01:01:42.525Z,26.02
2022-08-26T01:04:15.888Z,18.10
2022-08-26T01:06:44.300Z,31.35
2022-08-26T01:09:11.807Z,18.52
2022-08-26T01:11:38.830Z,22.38
2022-08-26T01:14:07.446Z,24.88
2022-08-26T01:16:35.622Z,29.27
2022-08-26T01:19:09.896Z,27.40
2022-08-26T01:21:45.381Z,26.02
2022-08-26T01:24:14.911Z,22.48
2022-08-26T01:26:43.216Z,24.02
2022-08-26T01:29:14.885Z,30.58
2022-08-26T01:31:49.555Z,27.08
2022-08-26T01:34:37.852Z,25.58
2022-08-26T01:37:16.098Z,23.30
2022-08-26T01:39:44.722Z,25.15
2022-08-26T01:42:14.547Z,24.30
2022-08-26T01:45:01.243Z,20.58
2022-08-26T01:47:30.799Z,19.63
2022-08-26T01:49:59.628Z,27.65
2022-08-26T01:52:30.158Z,20.98
2022-08-26T01:54:58.377Z,32.42
2022-08-26T01:57:26.208Z,26.55
2022-08-26T01:59:56.748Z,25.75
2022-08-26T02:02:24.517Z,23.88
2022-08-26T02:04:56.949Z,20.17
2022-08-26T02:07:24.411Z,27.58
2022-08-26T02:09:53.973Z,22.35
2022-08-26T02:12:21.196Z,22.10
2022-08-26T02:14:53.783Z,21.83
2022-08-26T02:17:25.390Z,21.58
2022-08-26T02:19:52.402Z,28.05
2022-08-26T02:22:21.250Z,32.53
2022-08-26T02:25:18.006Z,28.27
2022-08-26T02:27:47.756Z,28.42
2022-08-26T02:30:21.332Z,24.98
2022-08-26T02:32:49.587Z,28.15
2022-08-26T02:35:20.339Z,29.85
2022-08-26T02:37:49.429Z,23.08
2022-08-26T02:40:19.218Z,22.48
2022-08-26T02:42:48.747Z,26.65
2022-08-26T02:45:16.352Z,36.35
2022-08-26T02:47:51.469Z,31.05
2022-08-26T02:50:19.545Z,24.02
2022-08-26T02:52:48.223Z,26.20
2022-08-26T02:55:15.583Z,29.98
2022-08-26T02:57:42.358Z,27.38
2022-08-26T03:00:11.878Z,28.40
2022-08-26T03:02:38.517Z,20.67
2022-08-26T03:05:05.877Z,20.52
2022-08-26T03:07:32.786Z,27.77
2022-08-26T03:09:59.551Z,25.00
2022-08-26T03:12:26.794Z,25.17
2022-08-26T03:14:53.540Z,24.52
2022-08-26T03:17:21.241Z,26.40
2022-08-26T03:19:51.767Z,28.33
2022-08-26T03:22:21.012Z,33.30
2022-08-26T03:24:47.765Z,30.30
2022-08-26T03:27:14.473Z,24.20
2022-08-26T03:30:00.215Z,35.72
2022-08-26T03:32:28.069Z,21.75
2022-08-26T03:34:56.379Z,35.35
2022-08-26T03:37:23.252Z,28.40
2022-08-26T03:39:49.989Z,20.25
2022-08-26T03:42:17.317Z,25.40
2022-08-26T03:44:48.486Z,29.30
2022-08-26T03:47:15.726Z,27.25
2022-08-26T03:49:42.435Z,28.13
2022-08-26T03:52:09.232Z,29.77
2022-08-26T03:54:36.909Z,22.35
2022-08-26T03:57:03.684Z,26.65
2022-08-26T03:59:32.024Z,22.48
2022-08-26T04:01:58.711Z,23.67
2022-08-26T04:04:25.709Z,23.80
2022-08-26T04:06:58.378Z,36.17
2022-08-26T04:09:26.252Z,27.70
2022-08-26T04:11:53.880Z,19.17
2022-08-26T04:14:23.873Z,28.02
2022-08-26T04:16:52.515Z,34.25
2022-08-26T04:19:20.784Z,26.92
2022-08-26T04:21:50.945Z,32.70
2022-08-26T04:24:18.612Z,32.95
2022-08-26T04:26:45.714Z,32.38
2022-08-26T04:29:15.432Z,31.42
2022-08-26T04:31:42.366Z,26.20
2022-08-26T04:34:11.057Z,29.50
2022-08-26T04:36:38.508Z,30.05
2022-08-26T04:39:05.433Z,26.77
2022-08-26T04:41:32.916Z,32.45
2022-08-26T04:43:59.999Z,29.15
2022-08-26T04:46:27.486Z,22.58
2022-08-26T04:48:54.209Z,34.70
2022-08-26T04:51:27.347Z,38.83
2022-08-26T04:53:58.984Z,31.70
2022-08-26T04:56:32.600Z,25.08
2022-08-26T04:59:00.757Z,28.02
2022-08-26T05:01:28.339Z,24.23
2022-08-26T05:03:55.977Z,21.48
2022-08-26T05:06:22.730Z,23.67
2022-08-26T05:08:49.719Z,37.65
2022-08-26T05:11:16.602Z,26.30
2022-08-26T05:13:43.303Z,33.75
2022-08-26T05:16:12.393Z,32.58
2022-08-26T05:18:40.498Z,30.70
2022-08-26T05:21:07.564Z,29.00
2022-08-26T05:23:36.244Z,26.05
2022-08-26T05:26:08.837Z,29.52
2022-08-26T05:28:36.440Z,33.67
2022-08-26T05:31:23.604Z,30.10
2022-08-26T05:33:50.744Z,28.98
2022-08-26T05:36:21.064Z,25.45
2022-08-26T05:38:49.081Z,30.83
2022-08-26T05:41:39.432Z,31.95
2022-08-26T05:44:09.813Z,36.40
2022-08-26T05:46:37.712Z,36.92
2022-08-26T05:49:06.465Z,25.85
2022-08-26T05:51:40.544Z,27.75
2022-08-26T05:54:07.380Z,29.40
2022-08-26T05:56:37.629Z,26.65
2022-08-26T05:59:05.228Z,29.05
2022-08-26T06:01:35.819Z,30.67
2022-08-26T06:04:03.157Z,30.33
2022-08-26T06:06:32.627Z,25.92
2022-08-26T06:09:01.641Z,28.95
2022-08-26T06:11:30.644Z,35.42
2022-08-26T06:14:03.261Z,46.25
2022-08-26T06:16:32.302Z,37.38
2022-08-26T06:18:59.060Z,34.45
2022-08-26T06:21:30.763Z,28.05
2022-08-26T06:24:18.996Z,28.77
2022-08-26T06:26:55.077Z,28.25
2022-08-26T06:29:25.464Z,37.97
2022-08-26T06:31:54.025Z,34.22
2022-08-26T06:34:23.365Z,43.35
2022-08-26T06:36:58.574Z,39.72
2022-08-26T06:39:25.525Z,35.00
2022-08-26T06:41:52.362Z,33.80
2022-08-26T06:44:21.015Z,31.30
2022-08-26T06:46:50.490Z,28.85
2022-08-26T06:49:17.876Z,34.13
2022-08-26T06:51:44.637Z,34.28
2022-08-26T06:54:11.510Z,35.38
2022-08-26T06:56:41.753Z,38.75
2022-08-26T06:59:09.960Z,27.73
2022-08-26T07:01:44.992Z,35.20
2022-08-26T07:04:14.517Z,25.25
2022-08-26T07:06:48.841Z,30.70
2022-08-26T07:09:16.815Z,29.15
2022-08-26T07:11:44.491Z,39.72
2022-08-26T07:14:11.718Z,42.53
2022-08-26T07:16:39.953Z,34.42
2022-08-26T07:19:10.878Z,35.45
2022-08-26T07:21:40.427Z,34.90
2022-08-26T07:24:08.126Z,40.45
2022-08-26T07:26:34.902Z,43.35
2022-08-26T07:29:02.001Z,37.20
2022-08-26T07:31:37.369Z,32.15
2022-08-26T07:34:07.588Z,28.25
2022-08-26T07:36:34.545Z,24.88
2022-08-26T07:39:01.314Z,31.25
2022-08-26T07:43:59.607Z,30.60
2022-08-26T07:46:29.941Z,32.58
2022-08-26T07:48:57.474Z,34.05
2022-08-26T07:51:24.832Z,35.78
2022-08-26T07:53:53.047Z,32.70
2022-08-26T07:56:21.178Z,34.65
2022-08-26T07:58:51.435Z,27.70
2022-08-26T08:01:19.812Z,26.10
2022-08-26T08:03:46.902Z,27.05
2022-08-26T08:06:18.605Z,31.20
2022-08-26T08:08:45.335Z,39.08
2022-08-26T08:11:12.306Z,32.72
2022-08-26T08:13:39.438Z,32.33
2022-08-26T08:16:07.167Z,36.58
2022-08-26T08:18:40.179Z,32.38
2022-08-26T08:21:21.860Z,29.85
2022-08-26T08:23:52.128Z,37.22
2022-08-26T08:26:18.986Z,25.55
2022-08-26T08:28:47.754Z,27.40
2022-08-26T08:31:55.872Z,28.77
2022-08-26T08:34:21.430Z,25.88
2022-08-26T08:36:48.654Z,26.55
2022-08-26T08:39:16.761Z,21.17
2022-08-26T08:42:13.896Z,37.88
2022-08-26T08:44:44.204Z,33.35
2022-08-26T08:47:42.047Z,24.52
2022-08-26T08:50:21.319Z,38.88
2022-08-26T08:53:17.433Z,29.75
2022-08-26T08:56:01.917Z,37.08
2022-08-26T08:58:51.567Z,38.50
2022-08-26T09:01:45.338Z,28.63
2022-08-26T09:04:36.493Z,30.77
2022-08-26T09:07:06.571Z,37.10
2022-08-26T09:09:43.221Z,25.83
2022-08-26T09:12:18.972Z,30.02
2022-08-26T09:14:49.123Z,35.67
2022-08-26T09:17:49.536Z,28.65
2022-08-26T09:21:00.311Z,40.75
2022-08-26T09:23:27.272Z,30.45
2022-08-26T09:26:01.051Z,34.60
2022-08-26T09:28:30.636Z,30.25
2022-08-26T09:31:19.613Z,36.65
2022-08-26T09:33:47.145Z,46.25
2022-08-26T09:36:41.274Z,29.85
2022-08-26T09:39:37.768Z,38.60
2022-08-26T09:42:14.289Z,37.65
2022-08-26T09:45:04.877Z,34.65
2022-08-26T09:47:35.968Z,34.03
2022-08-26T09:50:20.077Z,28.40
2022-08-26T09:52:47.293Z,25.52
2022-08-26T09:55:21.637Z,26.38
2022-08-26T09:57:54.093Z,31.88
2022-08-26T10:00:26.299Z,26.23
2022-08-26T10:02:56.036Z,27.73
2022-08-26T10:05:56.760Z,32.70
2022-08-26T10:08:37.112Z,30.40
2022-08-26T10:11:19.269Z,43.63
2022-08-26T10:13:52.584Z,29.40
2022-08-26T10:16:28.532Z,34.47
2022-08-26T10:19:04.725Z,30.25
2022-08-26T10:21:38.947Z,32.08
2022-08-26T10:24:09.029Z,26.75
2022-08-26T10:27:05.117Z,37.28
2022-08-26T10:29:45.652Z,36.65
2022-08-26T10:32:16.409Z,45.03
2022-08-26T10:34:43.773Z,33.88
2022-08-26T10:37:18.000Z,36.67
2022-08-26T10:40:00.681Z,37.58
2022-08-26T10:42:27.355Z,31.90
2022-08-26T10:44:58.474Z,33.55
2022-08-26T10:47:31.683Z,29.13
2022-08-26T10:50:03.426Z,38.92
2022-08-26T10:52:57.611Z,32.17
2022-08-26T10:55:35.555Z,44.72
2022-08-26T10:58:47.059Z,53.33
2022-08-26T11:01:44.010Z,39.72
2022-08-26T11:04:35.336Z,35.35
2022-08-26T11:07:32.848Z,36.08
2022-08-26T11:10:05.215Z,30.73
2022-08-26T11:12:34.588Z,33.33
2022-08-26T11:15:10.000Z,36.88
2022-08-26T11:17:48.647Z,27.38
2022-08-26T11:20:37.274Z,31.10
2022-08-26T11:23:24.024Z,40.90
2022-08-26T11:25:56.989Z,31.63
2022-08-26T11:28:44.607Z,28.17
2022-08-26T11:31:19.124Z,36.10
2022-08-26T11:33:51.735Z,30.60
2022-08-26T11:36:41.612Z,27.33
2022-08-26T11:39:25.387Z,31.08
2022-08-26T11:41:54.147Z,28.17
2022-08-26T11:44:27.046Z,30.70
2022-08-26T11:47:01.581Z,26.52
2022-08-26T11:49:31.740Z,23.52
2022-08-26T11:52:13.786Z,32.80
2022-08-26T11:54:58.688Z,29.10
2022-08-26T11:57:27.088Z,18.58
2022-08-26T11:59:55.095Z,27.63
2022-08-26T12:02:21.878Z,24.40
2022-08-26T12:04:51.035Z,19.50
2022-08-26T12:07:27.502Z,22.27
2022-08-26T12:09:58.597Z,24.67
2022-08-26T12:12:35.136Z,26.88
2022-08-26T12:15:18.497Z,24.85
2022-08-26T12:17:51.719Z,19.50
2022-08-26T12:20:30.679Z,22.33
2022-08-26T12:22:59.132Z,21.90
2022-08-26T12:25:27.934Z,21.75
2022-08-26T12:28:05.426Z,23.25
2022-08-26T12:30:32.132Z,19.55
2022-08-26T12:33:22.359Z,15.98
2022-08-26T12:35:54.811Z,22.52
2022-08-26T12:38:25.438Z,20.95
2022-08-26T12:40:52.543Z,19.42
2022-08-26T12:43:44.476Z,37.08
2022-08-26T12:46:17.859Z,37.63
2022-08-26T12:48:49.024Z,24.42
2022-08-26T12:51:28.592Z,22.50
2022-08-26T12:53:56.239Z,15.77
2022-08-26T12:56:39.479Z,16.58
2022-08-26T12:59:22.235Z,24.85
2022-08-26T13:01:49.514Z,16.00
2022-08-26T13:04:39.147Z,17.95
2022-08-26T13:07:13.471Z,24.50
2022-08-26T13:09:40.151Z,31.33
2022-08-26T13:12:07.029Z,17.45
2022-08-26T13:14:33.808Z,16.80
2022-08-26T13:17:00.486Z,14.15
2022-08-26T13:19:27.294Z,15.68
2022-08-26T13:21:57.283Z,9.77
2022-08-26T13:24:37.089Z,12.50
2022-08-26T13:27:05.543Z,13.65
2022-08-26T13:29:32.543Z,15.88
2022-08-26T13:31:59.863Z,13.15
2022-08-26T13:34:27.467Z,11.80
2022-08-26T13:36:56.261Z,15.82
2022-08-26T13:39:23.756Z,25.25
2022-08-26T13:41:50.590Z,15.60
2022-08-26T13:44:17.600Z,18.80
2022-08-26T13:49:12.689Z,19.17
2022-08-26T13:51:39.496Z,16.77
2022-08-26T13:54:06.440Z,14.38
2022-08-26T13:56:33.883Z,10.95
2022-08-26T13:59:01.336Z,18.23
2022-08-26T14:01:30.291Z,18.45
2022-08-26T14:03:57.933Z,17.17
2022-08-26T14:06:25.237Z,17.17
2022-08-26T14:08:51.962Z,16.15
2022-08-26T14:11:19.025Z,15.38
2022-08-26T14:13:45.797Z,15.57
2022-08-26T14:16:22.105Z,13.68
2022-08-26T14:18:50.934Z,14.25
2022-08-26T14:21:18.270Z,14.70
2022-08-26T14:23:45.223Z,15.30
2022-08-26T14:26:19.007Z,18.67
2022-08-26T14:31:24.532Z,12.10
2022-08-26T14:33:51.346Z,13.40
2022-08-26T14:36:32.266Z,13.43
2022-08-26T14:39:02.586Z,13.32
2022-08-26T14:41:31.210Z,13.00
2022-08-26T14:44:01.716Z,10.30
2022-08-26T14:46:30.160Z,10.75
2022-08-26T14:49:02.018Z,12.05
2022-08-26T14:51:30.123Z,9.27
2022-08-26T14:54:11.830Z,8.00
2022-08-26T14:57:04.861Z,9.13
2022-08-26T14:59:38.288Z,11.77
2022-08-26T15:02:09.307Z,8.50
2022-08-26T15:04:44.512Z,10.13
2022-08-26T15:07:18.452Z,7.72
2022-08-26T15:12:19.958Z,9.50
2022-08-26T15:14:46.878Z,16.42
2022-08-26T15:17:16.889Z,10.55
2022-08-26T15:19:46.015Z,17.00
2022-08-26T15:22:18.476Z,13.95
2022-08-26T15:25:09.517Z,11.60
2022-08-26T15:27:39.485Z,12.70
2022-08-26T15:30:18.926Z,9.93
2022-08-26T15:32:45.612Z,6.68
2022-08-26T15:35:12.509Z,8.35
2022-08-26T15:37:39.562Z,11.90
2022-08-26T15:40:12.475Z,10.18
2022-08-26T15:42:57.505Z,10.88
2022-08-26T15:45:44.807Z,9.60
2022-08-26T15:48:26.890Z,9.75
2022-08-26T15:56:51.694Z,9.20
2022-08-26T15:59:19.942Z,15.45
2022-08-26T16:01:46.743Z,23.00
2022-08-26T16:04:14.122Z,23.45
2022-08-26T16:06:42.425Z,17.40
2022-08-26T16:09:09.551Z,14.82
2022-08-26T16:11:37.835Z,17.23
2022-08-26T16:14:05.171Z,15.68
2022-08-26T16:16:32.359Z,17.40
2022-08-26T16:18:59.892Z,22.02
2022-08-26T16:21:32.341Z,16.27
2022-08-26T16:24:00.259Z,14.60
2022-08-26T16:26:32.355Z,19.30
2022-08-26T16:29:04.254Z,15.38
2022-08-26T16:31:31.401Z,13.98
2022-08-26T16:33:58.161Z,15.70
2022-08-26T16:36:24.859Z,16.98
2022-08-26T16:38:55.179Z,14.50
2022-08-26T16:41:27.636Z,13.05
2022-08-26T16:43:55.168Z,11.20
2022-08-26T16:46:25.430Z,11.80
2022-08-26T16:48:54.194Z,14.82
2022-08-26T16:51:26.863Z,14.48
2022-08-26T16:53:55.191Z,11.57
2022-08-26T16:56:27.677Z,17.27
2022-08-26T16:59:00.800Z,21.92
2022-08-26T17:01:27.773Z,12.93
2022-08-26T17:03:54.514Z,15.57
2022-08-26T17:06:21.350Z,18.25
2022-08-26T17:08:48.131Z,16.73
2022-08-26T17:11:15.406Z,17.08
2022-08-26T17:13:42.160Z,16.35
2022-08-26T17:16:11.361Z,16.27
2022-08-26T17:18:38.363Z,11.60
2022-08-26T17:21:08.310Z,17.17
2022-08-26T17:23:35.857Z,14.68
2022-08-26T17:26:02.891Z,23.05
2022-08-26T17:28:29.574Z,12.25
2022-08-26T17:30:57.860Z,14.45
2022-08-26T17:33:25.637Z,15.05
2022-08-26T17:35:53.089Z,14.57
2022-08-26T17:38:21.037Z,14.75
2022-08-26T17:40:47.782Z,13.15
2022-08-26T17:43:14.470Z,12.57
2022-08-26T17:45:41.549Z,14.93
2022-08-26T17:48:08.647Z,17.35
2022-08-26T17:50:35.594Z,11.48
2022-08-26T17:53:02.295Z,11.80
2022-08-26T17:55:29.127Z,10.32
2022-08-26T17:57:55.857Z,12.10
2022-08-26T18:00:26.546Z,14.02
2022-08-26T18:02:54.449Z,11.80
2022-08-26T18:05:22.239Z,10.85
2022-08-26T18:07:48.997Z,12.00
2022-08-26T18:10:18.419Z,11.55
2022-08-26T18:12:46.187Z,13.00
2022-08-26T18:15:17.482Z,16.30
2022-08-26T18:17:44.668Z,11.15
2022-08-26T18:20:16.330Z,13.35
2022-08-26T18:22:43.994Z,11.85
2022-08-26T18:25:11.689Z,11.73
2022-08-26T18:27:38.745Z,12.43
2022-08-26T18:30:13.431Z,16.83
2022-08-26T18:32:42.897Z,15.07
2022-08-26T18:35:10.589Z,13.68
2022-08-26T18:37:37.603Z,13.73
2022-08-26T18:40:07.404Z,12.48
2022-08-26T18:42:34.924Z,14.18
2022-08-26T18:45:01.963Z,12.15
2022-08-26T18:47:30.011Z,10.50
2022-08-26T18:49:56.678Z,9.55
2022-08-26T18:52:23.885Z,11.43
2022-08-26T18:54:50.950Z,9.68
2022-08-26T18:57:17.686Z,17.80
2022-08-26T18:59:44.743Z,9.30
2022-08-26T19:02:11.631Z,12.40
2022-08-26T19:04:38.860Z,12.73
2022-08-26T19:07:06.414Z,13.57
2022-08-26T19:09:33.276Z,12.13
2022-08-26T19:12:01.615Z,10.82
2022-08-26T19:14:28.971Z,12.40
2022-08-26T19:16:55.915Z,12.90
2022-08-26T19:19:25.548Z,12.95
2022-08-26T19:21:53.059Z,18.38
2022-08-26T19:24:21.182Z,15.18
2022-08-26T19:26:51.355Z,15.40
2022-08-26T19:29:27.012Z,19.02
2022-08-26T19:31:53.798Z,17.15
2022-08-26T19:34:20.912Z,19.77
2022-08-26T19:36:48.170Z,13.10
2022-08-26T19:39:14.925Z,15.05
2022-08-26T19:41:41.928Z,16.27
2022-08-26T19:44:38.816Z,18.92
2022-08-26T19:47:08.296Z,18.85
2022-08-26T19:49:35.533Z,18.25
2022-08-26T19:52:03.307Z,18.63
2022-08-26T19:54:30.444Z,16.85
2022-08-26T19:56:57.543Z,13.00
2022-08-26T19:59:24.311Z,21.60
2022-08-26T20:02:01.121Z,15.10
2022-08-26T20:04:29.747Z,17.55
2022-08-26T20:06:57.689Z,18.48
2022-08-26T20:09:27.529Z,15.15
2022-08-26T20:11:54.169Z,14.98
2022-08-26T20:14:23.973Z,23.05
2022-08-26T20:16:50.697Z,15.98
2022-08-26T20:19:37.648Z,17.33
2022-08-26T20:22:04.879Z,14.32
2022-08-26T20:24:32.541Z,17.75
2022-08-26T20:26:59.418Z,16.92
2022-08-26T20:29:26.175Z,16.20
2022-08-26T20:31:54.599Z,13.93
2022-08-26T20:34:21.643Z,13.68
2022-08-26T20:36:50.150Z,17.58
2022-08-26T20:39:18.777Z,15.55
2022-08-26T20:41:45.440Z,22.30
2022-08-26T20:44:13.602Z,18.63
2022-08-26T20:46:40.923Z,13.27
2022-08-26T20:49:07.934Z,18.10
2022-08-26T20:51:35.300Z,25.73
2022-08-26T20:54:01.989Z,22.33
2022-08-26T20:56:28.719Z,17.45
2022-08-26T20:59:00.323Z,17.48
2022-08-26T21:01:33.491Z,15.05
2022-08-26T21:04:02.698Z,16.20
2022-08-26T21:06:30.265Z,13.82
2022-08-26T21:08:58.604Z,14.95
2022-08-26T21:11:26.329Z,17.05
2022-08-26T21:14:16.059Z,14.13
2022-08-26T21:16:41.378Z,14.13
2022-08-26T21:19:10.663Z,16.00
2022-08-26T21:21:37.738Z,14.07
2022-08-26T21:24:04.630Z,13.23
2022-08-26T21:26:31.314Z,17.85
2022-08-26T21:28:58.131Z,16.55
2022-08-26T21:31:25.601Z,21.52
2022-08-26T21:33:52.909Z,15.65
2022-08-26T21:36:19.979Z,19.88
2022-08-26T21:38:47.078Z,18.23
2022-08-26T21:41:19.307Z,13.40
2022-08-26T21:43:47.446Z,15.60
2022-08-26T21:46:18.815Z,21.45
2022-08-26T21:48:50.662Z,13.73
2022-08-26T21:51:20.523Z,17.38
2022-08-26T21:53:47.675Z,21.15
2022-08-26T21:56:16.796Z,15.93
2022-08-26T21:58:43.948Z,15.93
2022-08-26T22:01:13.854Z,16.55
2022-08-26T22:03:47.258Z,17.25
2022-08-26T22:08:42.403Z,15.43
2022-08-26T22:11:09.671Z,16.58
2022-08-26T22:13:38.724Z,17.40
2022-08-26T22:16:06.735Z,21.85
2022-08-26T22:18:34.218Z,16.95
2022-08-26T22:21:04.841Z,18.58
2022-08-26T22:23:31.986Z,19.70
2022-08-26T22:25:59.728Z,16.25
2022-08-26T22:28:26.799Z,15.85
2022-08-26T22:30:54.035Z,15.95
2022-08-26T22:33:20.733Z,15.43
2022-08-26T22:35:50.635Z,11.10
2022-08-26T22:38:17.801Z,15.77
2022-08-26T22:40:47.336Z,16.88
2022-08-26T22:43:14.559Z,12.00
2022-08-26T22:45:43.444Z,14.43
2022-08-26T22:48:12.087Z,15.00
2022-08-26T22:50:38.966Z,14.35
2022-08-26T22:53:05.655Z,16.90
2022-08-26T22:55:32.356Z,16.65
2022-08-26T22:57:59.271Z,15.13
2022-08-26T23:00:32.235Z,13.93
2022-08-26T23:03:00.295Z,13.10
2022-08-26T23:05:27.220Z,13.95
2022-08-26T23:07:54.075Z,13.38
2022-08-26T23:10:20.954Z,12.95
2022-08-26T23:12:47.621Z,15.07
2022-08-26T23:15:15.064Z,17.48
2022-08-26T23:17:43.041Z,12.07
2022-08-26T23:20:11.762Z,17.58
2022-08-26T23:22:39.938Z,22.23
2022-08-26T23:25:10.033Z,25.10
2022-08-26T23:27:39.628Z,19.55
2022-08-26T23:30:08.816Z,18.50
2022-08-26T23:32:35.525Z,16.75
2022-08-26T23:35:02.243Z,18.48
2022-08-26T23:37:33.519Z,20.20
2022-08-26T23:40:05.809Z,20.75
2022-08-26T23:42:32.555Z,23.08
2022-08-26T23:44:59.214Z,18.33
2022-08-26T23:47:26.173Z,16.92
2022-08-26T23:49:53.106Z,16.33
2022-08-26T23:52:38.394Z,21.77
2022-08-26T23:55:06.090Z,12.70
2022-08-26T23:57:33.687Z,19.58
